Terminal Aerodrome Forecast
Issued by NWS Wakefield, VA

Home | Current Version | Previous Version | Text Only | Print | Product List | Glossary On
Versions: 1 2 3 4 5 6 7 8 9 10 11 12 13 14 15 16 17 18 19 20 21 22 23 24 25 26 27 28 29
000
FTUS41 KAKQ 231132
TAFSBY
TAF
KSBY 231132Z 2312/2412 03008KT P6SM VCSH BKN050
     FM231700 08009KT P6SM BKN035
     FM232200 08009KT P6SM -SHRA BKN080
     FM240200 06007KT P6SM -SHRA OVC035
     FM240600 06008KT P6SM -SHRA OVC015=

USA.gov is the U.S. government's official web portal to all federal, state and local government web resources and services.